createdAt,value
2019-04-20T07:05:44.724Z,29.65
2019-04-20T07:08:35.111Z,33.50
2019-04-20T07:11:08.902Z,40.58
2019-04-20T07:14:02.912Z,31.15
2019-04-20T07:16:46.496Z,35.33
2019-04-20T09:01:33.818Z,20.62
2019-04-20T09:04:17.678Z,19.17
2019-04-20T09:07:11.058Z,17.82
2019-04-20T09:18:47.671Z,13.85
2019-04-20T09:46:17.949Z,12.47
2019-04-20T09:49:15.668Z,13.95
2019-04-20T09:51:55.289Z,12.85
2019-04-20T09:54:32.624Z,14.93
2019-04-20T09:57:07.487Z,12.23
2019-04-20T09:59:33.174Z,13.38
2019-04-20T10:01:59.107Z,13.35
2019-04-20T10:04:26.120Z,12.58
2019-04-20T10:07:22.177Z,14.73
2019-04-20T11:13:39.376Z,17.48
2019-04-20T11:16:10.605Z,18.10
2019-04-20T11:18:43.124Z,12.87
2019-04-20T11:21:13.339Z,10.32
2019-04-20T11:23:44.410Z,11.53
2019-04-20T11:26:14.291Z,12.45
2019-04-20T11:28:44.240Z,10.25
2019-04-20T11:31:14.432Z,9.83
2019-04-20T11:33:44.334Z,8.85
2019-04-20T11:36:14.917Z,8.30
2019-04-20T11:38:44.949Z,11.93
2019-04-20T11:41:25.638Z,11.97
2019-04-20T11:43:51.498Z,10.20
2019-04-20T11:46:22.724Z,11.60
2019-04-20T11:48:52.526Z,9.35
2019-04-20T11:51:23.277Z,10.90
2019-04-20T11:53:54.281Z,15.68
2019-04-20T11:56:29.247Z,11.20
2019-04-20T11:58:56.784Z,12.10
2019-04-20T12:01:47.966Z,12.98
2019-04-20T12:04:25.218Z,10.47
2019-04-20T12:06:43.356Z,11.75
2019-04-20T12:09:13.151Z,9.20
2019-04-20T12:11:55.998Z,11.55
2019-04-20T12:14:14.476Z,10.55
2019-04-20T12:16:44.195Z,10.58
2019-04-20T12:19:14.715Z,12.82
2019-04-20T12:21:45.486Z,10.55
2019-04-20T12:24:16.421Z,10.00
2019-04-20T12:26:47.015Z,10.40
2019-04-20T12:29:16.782Z,10.30
2019-04-20T12:31:52.792Z,10.65
2019-04-20T12:34:18.185Z,9.50
2019-04-20T12:36:49.188Z,8.78
2019-04-20T12:39:19.683Z,9.70
2019-04-20T12:41:53.787Z,10.32
2019-04-20T12:44:21.837Z,10.98
2019-04-20T12:46:52.024Z,8.40
2019-04-20T12:49:23.398Z,8.78
2019-04-20T12:51:59.261Z,8.80
2019-04-20T12:54:24.867Z,9.08
2019-04-20T12:56:54.621Z,10.23
2019-04-20T12:59:25.574Z,10.03
2019-04-20T13:01:55.591Z,8.20
2019-04-20T13:04:26.737Z,8.50
2019-04-20T13:06:59.582Z,9.25
2019-04-20T13:09:36.742Z,9.83
2019-04-20T13:12:22.088Z,10.77
2019-04-20T13:15:02.411Z,9.33
2019-04-20T13:17:34.504Z,8.93
2019-04-20T13:20:07.906Z,11.65
2019-04-20T13:22:37.864Z,14.63
2019-04-20T13:25:08.775Z,9.15
2019-04-20T13:27:38.878Z,7.58
2019-04-20T13:30:09.270Z,6.78
2019-04-20T13:32:38.966Z,8.55
2019-04-20T13:35:10.306Z,15.65
2019-04-20T13:37:41.816Z,11.30
2019-04-20T13:40:13.875Z,7.03
2019-04-20T13:42:43.691Z,9.83
2019-04-20T13:45:14.992Z,10.20
2019-04-20T13:47:45.245Z,10.20
2019-04-20T13:50:17.896Z,8.08
2019-04-20T13:52:48.887Z,7.78
2019-04-20T13:55:19.033Z,7.67
2019-04-20T13:57:57.977Z,7.72
2019-04-20T14:00:50.925Z,8.78
2019-04-20T14:03:26.991Z,8.10
2019-04-20T14:05:53.088Z,6.67
2019-04-20T14:08:27.294Z,7.90
2019-04-20T14:10:59.670Z,6.20
2019-04-20T14:13:37.125Z,10.20
2019-04-20T14:16:00.919Z,8.03
2019-04-20T14:18:31.134Z,10.28
2019-04-20T14:21:02.376Z,9.25
2019-04-20T14:23:32.837Z,8.38
2019-04-20T14:26:03.155Z,13.32
2019-04-20T14:28:33.288Z,9.45
2019-04-20T14:31:03.786Z,9.15
2019-04-20T14:33:34.785Z,9.35
2019-04-20T14:36:05.206Z,15.20
2019-04-20T14:38:36.179Z,4.57
2019-04-20T14:41:10.836Z,28.13
2019-04-20T14:43:40.554Z,44.93
2019-04-20T14:46:10.607Z,40.50
2019-04-20T14:48:40.648Z,25.57
2019-04-20T14:51:11.752Z,11.18
2019-04-20T14:53:43.599Z,14.20
2019-04-20T14:56:13.582Z,18.57
2019-04-20T14:58:49.209Z,14.68
2019-04-20T15:01:32.907Z,9.20
2019-04-20T15:04:09.288Z,4.50
2019-04-20T15:06:36.683Z,15.88
2019-04-20T15:09:08.579Z,13.28
2019-04-20T15:11:41.678Z,17.67
2019-04-20T15:14:11.374Z,15.83
2019-04-20T15:16:42.548Z,7.42
2019-04-20T15:19:15.653Z,9.95
2019-04-20T15:21:47.429Z,10.35
2019-04-20T15:24:18.169Z,12.15
2019-04-20T15:26:48.739Z,16.17
2019-04-20T15:29:18.538Z,10.15
2019-04-20T15:31:48.278Z,12.03
2019-04-20T15:34:19.167Z,13.43
2019-04-20T15:36:49.843Z,6.70
2019-04-20T15:39:21.110Z,8.15
2019-04-20T15:41:51.521Z,6.00
2019-04-20T15:44:22.393Z,9.03
2019-04-20T15:46:53.161Z,22.13
2019-04-20T15:49:24.005Z,9.17
2019-04-20T15:51:53.782Z,7.10
2019-04-20T15:54:23.494Z,13.90
2019-04-20T15:56:58.873Z,7.03
2019-04-20T15:59:24.508Z,6.47
2019-04-20T16:01:55.782Z,10.80
2019-04-20T16:04:45.026Z,8.50
2019-04-20T16:07:15.175Z,5.40
2019-04-20T16:09:46.368Z,10.13
2019-04-20T16:12:17.079Z,9.60
2019-04-20T16:14:47.446Z,11.63
2019-04-20T16:17:17.450Z,9.33
2019-04-20T16:19:55.387Z,10.38
2019-04-20T16:22:26.139Z,11.68
2019-04-20T16:24:57.459Z,13.15
2019-04-20T16:27:29.725Z,10.60
2019-04-20T16:29:59.907Z,16.82
2019-04-20T16:32:30.416Z,25.08
2019-04-20T16:35:00.427Z,10.88
2019-04-20T16:37:30.568Z,7.53
2019-04-20T16:40:00.790Z,10.30
2019-04-20T16:42:34.169Z,19.23
2019-04-20T16:45:07.339Z,26.82
2019-04-20T16:47:37.552Z,15.75
2019-04-20T16:50:13.191Z,20.85
2019-04-20T16:52:43.727Z,14.45
2019-04-20T16:55:14.719Z,27.40
2019-04-20T16:57:47.517Z,20.43
2019-04-20T17:00:17.917Z,38.95
2019-04-20T17:02:54.360Z,34.75
2019-04-20T17:05:25.769Z,36.23
2019-04-20T17:08:00.986Z,37.73
2019-04-20T17:10:36.840Z,51.77
2019-04-20T17:13:06.543Z,42.23
2019-04-20T17:15:37.319Z,70.65
2019-04-20T17:18:07.629Z,153.02
2019-04-20T17:20:38.850Z,71.50
2019-04-20T17:23:10.621Z,42.48
2019-04-20T17:25:40.208Z,32.17
2019-04-20T17:28:17.413Z,80.72
2019-04-20T17:30:49.048Z,64.62
2019-04-20T17:33:25.786Z,72.42
2019-04-20T17:36:01.431Z,46.15
2019-04-20T17:38:24.646Z,56.48
2019-04-20T17:41:08.756Z,153.23
2019-04-20T17:43:33.127Z,128.35
2019-04-20T17:46:07.410Z,194.30
2019-04-20T17:48:42.161Z,130.05
2019-04-20T17:51:23.418Z,107.43
2019-04-20T17:53:47.356Z,168.87
2019-04-20T17:56:11.971Z,145.47
2019-04-20T17:58:41.962Z,94.42
2019-04-20T18:01:40.999Z,44.75
2019-04-20T18:04:35.431Z,29.02
2019-04-20T18:06:47.876Z,26.80
2019-04-20T18:09:35.896Z,46.55
2019-04-20T18:11:58.713Z,38.50
2019-04-20T18:14:43.189Z,39.78
2019-04-20T18:17:29.359Z,40.67
2019-04-20T18:19:58.873Z,47.20
2019-04-20T18:22:29.855Z,48.85
2019-04-20T18:25:19.188Z,55.10
2019-04-20T18:27:45.930Z,63.13
2019-04-20T18:30:22.826Z,73.92
2019-04-20T18:32:37.800Z,99.30
2019-04-20T18:35:16.308Z,86.95
2019-04-20T18:37:52.516Z,100.70
2019-04-20T18:40:29.128Z,97.10
2019-04-20T18:42:58.347Z,102.80
2019-04-20T18:45:36.440Z,113.43
2019-04-20T18:48:11.472Z,100.65
2019-04-20T18:50:30.734Z,95.65
2019-04-20T18:52:59.927Z,80.45
2019-04-20T18:55:41.160Z,86.87
2019-04-20T18:58:01.638Z,82.67
2019-04-20T19:00:34.388Z,76.80
2019-04-20T19:03:12.072Z,72.27
2019-04-20T19:05:35.763Z,68.57
2019-04-20T19:08:10.365Z,63.87
2019-04-20T19:10:40.353Z,48.98
2019-04-20T19:13:28.450Z,58.87
2019-04-20T19:16:15.224Z,56.50
2019-04-20T19:18:56.035Z,50.70
2019-04-20T19:21:12.989Z,52.67
2019-04-20T19:23:54.925Z,50.12
2019-04-20T19:26:18.210Z,53.83
2019-04-20T19:28:52.753Z,53.10
2019-04-20T19:31:36.808Z,50.95
2019-04-20T19:34:08.510Z,58.08
2019-04-20T19:36:30.721Z,60.75
2019-04-20T19:39:08.531Z,54.13
2019-04-20T19:41:32.021Z,54.63
2019-04-20T19:44:09.155Z,50.80
2019-04-20T19:47:03.834Z,43.33
2019-04-20T19:49:07.954Z,47.05
2019-04-20T19:51:55.173Z,47.87
2019-04-20T19:54:24.146Z,43.35
2019-04-20T19:56:52.385Z,38.05
2019-04-20T19:59:17.434Z,38.63
2019-04-20T20:01:37.645Z,34.50
2019-04-20T20:04:09.900Z,36.40
2019-04-20T20:06:47.088Z,33.28
2019-04-20T20:09:12.823Z,31.30
2019-04-20T20:11:44.997Z,33.35
2019-04-20T20:14:19.245Z,32.33
2019-04-20T20:17:03.950Z,31.82
2019-04-20T20:19:32.790Z,28.67
2019-04-20T20:22:04.494Z,27.67
2019-04-20T20:24:21.443Z,31.90
2019-04-20T20:26:58.426Z,27.98
2019-04-20T20:31:05.997Z,27.58
2019-04-20T20:33:45.392Z,25.07
2019-04-20T20:36:06.590Z,27.93
2019-04-20T20:38:37.108Z,31.68
2019-04-20T20:41:10.326Z,27.05
2019-04-20T20:43:47.427Z,49.77
2019-04-20T20:46:17.251Z,41.63
2019-04-20T20:49:00.607Z,46.55
2019-04-20T20:51:28.563Z,45.43
2019-04-20T20:53:50.927Z,49.97
2019-04-20T20:56:20.256Z,43.83
2019-04-20T20:58:52.012Z,45.08
2019-04-20T21:01:20.460Z,45.17
2019-04-20T21:03:48.649Z,39.83
2019-04-20T21:06:18.890Z,40.03
2019-04-20T21:08:52.329Z,33.70
2019-04-20T21:11:23.708Z,33.85
2019-04-20T21:13:50.995Z,33.35
2019-04-20T21:16:26.614Z,30.82
2019-04-20T21:19:10.488Z,26.50
2019-04-20T21:21:38.562Z,28.47
2019-04-20T21:24:08.983Z,24.85
2019-04-20T21:26:37.627Z,23.85
2019-04-20T21:29:06.166Z,26.00
2019-04-20T21:31:36.613Z,26.05
2019-04-20T21:34:11.393Z,24.70
2019-04-20T21:36:38.855Z,24.07
2019-04-20T21:39:18.098Z,26.70
2019-04-20T21:41:50.951Z,22.73
2019-04-20T21:44:19.268Z,26.50
2019-04-20T21:46:49.219Z,21.25
2019-04-20T21:49:30.706Z,22.27
2019-04-20T21:52:00.579Z,21.45
2019-04-20T21:54:22.368Z,22.00
2019-04-20T21:56:56.160Z,22.58
2019-04-20T21:59:30.874Z,21.75
2019-04-20T22:02:03.398Z,22.22
2019-04-20T22:04:27.158Z,18.15
2019-04-20T22:06:58.229Z,25.00
2019-04-20T22:09:37.134Z,23.38
2019-04-20T22:12:00.180Z,18.50
2019-04-20T22:14:33.691Z,21.02
2019-04-20T22:17:03.637Z,18.15
2019-04-20T22:19:42.171Z,18.92
2019-04-20T22:22:16.121Z,17.30
2019-04-20T22:24:51.939Z,21.02
2019-04-20T22:27:15.956Z,24.02
2019-04-20T22:29:38.561Z,24.02
2019-04-20T22:32:11.604Z,20.02
2019-04-20T22:34:39.834Z,22.30
2019-04-20T22:37:15.226Z,22.63
2019-04-20T22:39:47.748Z,20.95
2019-04-20T22:42:17.585Z,24.00
2019-04-20T22:44:47.932Z,26.17
2019-04-20T22:47:23.268Z,24.10
2019-04-20T22:50:11.879Z,23.60
2019-04-20T22:52:39.806Z,30.10
2019-04-20T22:55:16.819Z,25.12
2019-04-20T22:57:36.275Z,28.25
2019-04-20T23:00:03.402Z,28.52
2019-04-20T23:02:28.298Z,26.07
2019-04-20T23:04:58.266Z,27.48
2019-04-20T23:07:28.495Z,24.98
2019-04-20T23:10:00.155Z,30.52
2019-04-20T23:12:30.888Z,30.25
2019-04-20T23:15:02.526Z,27.73
2019-04-20T23:17:38.714Z,23.30
2019-04-20T23:20:13.338Z,32.17
2019-04-20T23:22:43.944Z,26.17
2019-04-20T23:25:13.364Z,26.25
2019-04-20T23:27:43.807Z,22.98
2019-04-20T23:30:23.667Z,21.23
2019-04-20T23:32:46.389Z,24.05
2019-04-20T23:35:19.751Z,22.82
2019-04-20T23:37:48.523Z,25.27
2019-04-20T23:40:19.630Z,22.43
2019-04-20T23:42:55.699Z,24.23
2019-04-20T23:45:35.504Z,20.62
2019-04-20T23:48:12.064Z,24.40
2019-04-20T23:50:58.239Z,21.10
2019-04-20T23:53:32.975Z,20.35
2019-04-20T23:55:45.778Z,23.03
2019-04-20T23:58:16.424Z,30.60
